Time;durP1;ratioP1;P1;durP2;ratioP2;P2;SDS_P1;SDS_P2;PMS_P1;PMS_P2;Temp;Humidity;BMP_temperature;BMP_pressure;BME280_temperature;BME280_humidity;BME280_pressure;Samples;Min_cycle;Max_cycle;Signal;HPM_P1;HPM_P2
2022/05/19 00:00:24;;;;;;;13.75;4.85;;;;;;;25.78;56.38;101013.97;4976932;28;20054;-70
2022/05/19 00:02:51;;;;;;;14.82;4.18;;;;;;;26.07;55.68;101013.47;4975576;28;20046;-69
2022/05/19 00:05:20;;;;;;;9.13;3.97;;;;;;;25.85;55.15;101009.13;4973658;28;20477;-68
2022/05/19 00:07:47;;;;;;;7.57;3.55;;;;;;;25.81;56.13;101015.97;4960115;28;20058;-69
2022/05/19 00:10:14;;;;;;;11.00;4.15;;;;;;;25.93;56.36;101018.34;4975625;28;20050;-69
2022/05/19 00:12:42;;;;;;;8.70;4.15;;;;;;;25.84;55.09;101015.97;4977186;28;20530;-69
2022/05/19 00:15:11;;;;;;;14.68;3.95;;;;;;;25.99;55.13;101013.88;4957742;28;20062;-68
2022/05/19 00:17:39;;;;;;;9.73;4.10;;;;;;;25.77;56.92;101006.75;4975759;28;20068;-70
2022/05/19 00:20:08;;;;;;;8.02;3.78;;;;;;;26.14;55.92;101007.78;4971024;28;20141;-69
2022/05/19 00:22:35;;;;;;;10.38;3.95;;;;;;;25.94;56.37;100992.56;4970751;28;20059;-69
2022/05/19 00:25:03;;;;;;;12.52;4.40;;;;;;;25.68;57.86;100998.72;4958954;28;20058;-69
2022/05/19 00:27:30;;;;;;;14.02;4.63;;;;;;;25.86;57.40;100990.16;4942505;28;20382;-68
2022/05/19 00:29:57;;;;;;;10.77;4.25;;;;;;;25.89;56.93;100984.47;4976640;28;20570;-69
2022/05/19 00:32:25;;;;;;;9.02;4.20;;;;;;;25.79;57.40;100984.53;4976429;28;20545;-67
2022/05/19 00:34:52;;;;;;;14.80;4.00;;;;;;;25.87;56.98;100981.28;4965878;28;20055;-69
2022/05/19 00:37:19;;;;;;;15.55;4.07;;;;;;;25.84;57.00;100976.44;4958012;28;20058;-69
2022/05/19 00:39:47;;;;;;;9.93;3.90;;;;;;;25.73;57.59;100974.91;4974203;28;20047;-68
2022/05/19 00:45:03;;;;;;;11.07;4.78;;;;;;;25.72;57.58;100968.44;4971932;28;20076;-68
2022/05/19 00:47:42;;;;;;;13.82;4.50;;;;;;;25.87;57.36;100960.72;4974637;28;20043;-69
2022/05/19 00:50:17;;;;;;;9.43;4.30;;;;;;;25.56;58.30;100962.47;4956971;28;20066;-68
2022/05/19 00:52:45;;;;;;;10.43;3.90;;;;;;;25.68;57.95;100961.22;4973839;28;20497;-69
2022/05/19 00:55:19;;;;;;;10.75;4.32;;;;;;;25.53;58.13;100954.81;4974097;28;20505;-69
2022/05/19 00:58:08;;;;;;;10.85;4.00;;;;;;;25.62;58.30;100951.56;4949519;29;20478;-68
2022/05/19 01:00:36;;;;;;;8.73;4.40;;;;;;;25.56;58.09;100951.16;4944886;28;20054;-68
2022/05/19 01:03:04;;;;;;;12.23;4.72;;;;;;;25.55;58.82;100941.94;4974272;28;20073;-69
2022/05/19 01:05:38;;;;;;;11.13;4.80;;;;;;;25.65;57.94;100940.25;4975528;28;20051;-69
2022/05/19 01:08:16;;;;;;;14.23;4.35;;;;;;;25.67;58.27;100937.84;4967851;28;20051;-68
2022/05/19 01:10:44;;;;;;;12.88;4.50;;;;;;;25.83;57.52;100937.34;4973339;28;20117;-68
2022/05/19 01:13:12;;;;;;;12.93;5.40;;;;;;;25.63;58.31;100936.25;4941909;28;20416;-68
2022/05/19 01:15:44;;;;;;;13.65;7.63;;;;;;;25.54;58.98;100928.25;4957719;28;20111;-69
2022/05/19 01:18:13;;;;;;;10.25;5.20;;;;;;;25.62;58.21;100934.63;4970352;28;20180;-69
2022/05/19 01:20:41;;;;;;;10.07;5.05;;;;;;;25.58;58.71;100935.47;4956544;28;20054;-69
2022/05/19 01:23:47;;;;;;;12.20;5.22;;;;;;;25.63;58.40;100925.75;4972996;28;20050;-69
2022/05/19 01:26:36;;;;;;;15.98;4.38;;;;;;;25.64;58.60;100930.19;4934365;29;20066;-68
2022/05/19 01:29:03;;;;;;;12.02;4.97;;;;;;;25.68;58.11;100930.19;4934175;29;20642;-68
2022/05/19 01:31:43;;;;;;;13.05;4.70;;;;;;;25.69;57.67;100932.59;4939361;28;20059;-69
2022/05/19 01:34:11;;;;;;;12.50;4.80;;;;;;;25.62;58.17;100929.00;4964670;28;20047;-69
2022/05/19 01:36:39;;;;;;;9.82;4.80;;;;;;;25.45;59.28;100931.47;4969110;28;20135;-68
2022/05/19 01:39:13;;;;;;;;;;;;;;;25.43;59.21;100938.75;4975840;28;20609;-69
2022/05/19 01:42:02;;;;;;;12.35;4.70;;;;;;;25.21;60.21;100940.78;4966746;28;19921;-68
2022/05/19 01:44:53;;;;;;;10.07;4.97;;;;;;;25.27;59.88;100933.53;4972465;28;20051;-70
2022/05/19 01:47:51;;;;;;;15.82;5.47;;;;;;;25.47;59.46;100934.69;4973802;28;20459;-69
2022/05/19 01:50:32;;;;;;;15.68;4.38;;;;;;;25.35;59.87;100931.50;4956032;28;20054;-68
2022/05/19 01:53:11;;;;;;;14.05;5.43;;;;;;;25.20;60.72;100929.91;4957067;28;20042;-68
2022/05/19 01:56:00;;;;;;;11.13;5.05;;;;;;;25.09;60.79;100931.97;4958134;28;20051;-69
2022/05/19 01:58:44;;;;;;;11.52;5.32;;;;;;;24.94;61.41;100928.38;4962794;28;20150;-69
2022/05/19 02:01:13;;;;;;;8.98;4.50;;;;;;;25.08;61.01;100928.34;4972089;28;20042;-69
2022/05/19 02:03:50;;;;;;;11.77;4.88;;;;;;;25.02;60.87;100927.16;4956397;28;20406;-70
2022/05/19 02:06:39;;;;;;;10.65;4.68;;;;;;;24.90;62.00;100930.41;4953356;28;20066;-68
2022/05/19 02:09:10;;;;;;;9.35;4.38;;;;;;;24.96;61.96;100936.44;4963122;28;20050;-68
2022/05/19 02:11:45;;;;;;;14.75;5.13;;;;;;;25.20;61.06;100936.38;4941807;28;20050;-68
2022/05/19 02:14:15;;;;;;;10.85;4.53;;;;;;;25.11;61.50;100927.53;4975559;28;20055;-69
2022/05/19 02:16:43;;;;;;;10.60;5.05;;;;;;;24.74;62.90;100930.00;4975371;28;20371;-68
2022/05/19 02:19:12;;;;;;;8.45;4.18;;;;;;;24.72;63.17;100929.63;4985666;28;20383;-68
2022/05/19 02:21:40;;;;;;;10.80;4.88;;;;;;;24.82;63.02;100925.19;4961975;28;20054;-69
2022/05/19 02:24:09;;;;;;;11.07;4.95;;;;;;;24.79;62.50;100926.00;4976927;28;20106;-69
2022/05/19 02:26:39;;;;;;;13.23;4.63;;;;;;;24.80;62.74;100919.94;4961180;28;20061;-68
2022/05/19 02:29:09;;;;;;;10.40;4.70;;;;;;;24.87;62.94;100927.59;4974068;28;20051;-69
2022/05/19 02:31:41;;;;;;;11.30;4.40;;;;;;;24.80;63.28;100931.22;4972292;28;20078;-68
2022/05/19 02:34:10;;;;;;;8.93;4.70;;;;;;;24.45;64.26;100932.03;4977269;28;20066;-69
2022/05/19 02:36:37;;;;;;;9.60;4.97;;;;;;;24.57;63.92;100930.00;4961922;28;20054;-68
2022/05/19 02:39:05;;;;;;;9.18;4.97;;;;;;;24.66;63.73;100930.38;4948261;28;20054;-69
2022/05/19 02:41:33;;;;;;;10.82;4.90;;;;;;;24.67;63.77;100934.84;4960968;28;20077;-68
2022/05/19 02:44:00;;;;;;;10.30;5.07;;;;;;;24.55;64.63;100938.84;4971089;28;20055;-68
2022/05/19 02:46:28;;;;;;;10.75;4.95;;;;;;;24.46;64.45;100938.47;4977921;28;20366;-69
2022/05/19 02:48:58;;;;;;;12.32;5.20;;;;;;;24.55;64.22;100930.41;4978091;28;20054;-69
2022/05/19 02:51:25;;;;;;;10.98;5.38;;;;;;;24.56;64.49;100929.19;4978721;28;20043;-68
2022/05/19 02:53:53;;;;;;;11.85;5.30;;;;;;;24.38;64.99;100922.75;4957612;28;20046;-68
2022/05/19 02:56:21;;;;;;;12.45;5.65;;;;;;;24.31;65.50;100931.19;4969028;28;20046;-68
2022/05/19 02:58:48;;;;;;;18.23;5.38;;;;;;;24.46;65.23;100936.44;4971301;28;20055;-68
2022/05/19 03:01:15;;;;;;;15.48;6.07;;;;;;;24.37;65.33;100941.66;4972982;28;20050;-68
2022/05/19 03:03:43;;;;;;;11.80;5.47;;;;;;;24.40;65.11;100935.25;4958588;28;20823;-69
2022/05/19 03:06:10;;;;;;;8.38;4.65;;;;;;;24.45;64.89;100937.66;4964632;28;20549;-69
2022/05/19 03:08:39;;;;;;;19.45;5.93;;;;;;;24.49;64.79;100930.00;4971705;28;20077;-68
2022/05/19 03:11:07;;;;;;;12.50;5.40;;;;;;;24.15;65.92;100931.59;4963340;28;20066;-68
2022/05/19 03:13:34;;;;;;;11.55;5.45;;;;;;;24.31;65.63;100929.19;4960971;28;20055;-68
2022/05/19 03:16:06;;;;;;;12.77;5.15;;;;;;;24.44;65.57;100924.75;4959527;28;20047;-68
2022/05/19 03:18:34;;;;;;;12.10;5.40;;;;;;;24.31;65.55;100931.19;4959837;28;20050;-68
2022/05/19 03:21:01;;;;;;;11.13;5.35;;;;;;;24.49;65.30;100927.19;4977283;28;20058;-68
2022/05/19 03:23:28;;;;;;;10.85;4.97;;;;;;;24.27;65.75;100927.56;4974165;28;20047;-68
2022/05/19 03:25:56;;;;;;;9.65;5.22;;;;;;;24.17;66.57;100931.19;4946671;28;20517;-68
2022/05/19 03:28:23;;;;;;;12.48;5.35;;;;;;;24.22;66.24;100934.41;4975840;28;20050;-69
2022/05/19 03:30:51;;;;;;;12.30;5.68;;;;;;;24.05;67.19;100937.19;4976265;28;20066;-68
2022/05/19 03:33:18;;;;;;;11.23;5.05;;;;;;;23.98;67.03;100939.97;4975962;28;20068;-68
2022/05/19 03:36:01;;;;;;;12.48;5.70;;;;;;;23.98;67.36;100934.34;4975814;28;20367;-69
2022/05/19 03:38:29;;;;;;;14.40;5.43;;;;;;;24.05;67.42;100938.00;4959785;28;20046;-68
2022/05/19 03:40:56;;;;;;;13.05;5.63;;;;;;;24.21;66.36;100930.00;4958412;28;20054;-68
2022/05/19 03:43:27;;;;;;;12.98;5.78;;;;;;;23.95;67.33;100926.69;4951768;28;20062;-68
2022/05/19 03:46:01;;;;;;;10.40;5.45;;;;;;;24.05;67.20;100925.94;4981610;28;20058;-67
2022/05/19 03:48:36;;;;;;;10.18;5.40;;;;;;;24.11;66.92;100932.78;4943897;28;20070;-67
2022/05/19 03:51:08;;;;;;;16.43;5.93;;;;;;;24.19;66.56;100929.59;4982281;28;20066;-67
2022/05/19 03:53:41;;;;;;;15.95;5.88;;;;;;;24.30;66.07;100932.41;4960829;28;20046;-67
2022/05/19 03:56:10;;;;;;;15.00;5.85;;;;;;;24.15;66.49;100931.59;4981882;28;20055;-67
2022/05/19 03:58:38;;;;;;;12.10;5.55;;;;;;;23.96;67.21;100936.72;4968439;28;20062;-67
2022/05/19 04:01:06;;;;;;;16.17;6.13;;;;;;;23.95;67.42;100933.13;4958381;28;20051;-68
2022/05/19 04:03:36;;;;;;;11.80;5.38;;;;;;;23.94;67.03;100934.31;4960100;28;20103;-67
2022/05/19 04:06:07;;;;;;;8.13;4.85;;;;;;;24.04;66.96;100936.38;4959257;28;20052;-68
2022/05/19 04:08:38;;;;;;;12.32;5.63;;;;;;;24.23;66.04;100943.66;4960016;28;20058;-67
2022/05/19 04:11:06;;;;;;;9.95;5.72;;;;;;;24.31;65.42;100936.81;4966032;28;20054;-67
2022/05/19 04:13:33;;;;;;;13.63;5.47;;;;;;;24.05;67.21;100931.56;4985834;28;20053;-67
2022/05/19 04:16:01;;;;;;;12.98;5.70;;;;;;;24.07;66.81;100929.97;4981963;28;20055;-68
2022/05/19 04:18:35;;;;;;;14.07;5.82;;;;;;;23.80;68.38;100925.84;4975179;28;20045;-68
2022/05/19 04:21:05;;;;;;;13.07;5.38;;;;;;;23.55;69.11;100924.97;4977054;28;20042;-69
2022/05/19 04:23:34;;;;;;;12.10;5.97;;;;;;;23.70;68.77;100926.63;4960328;28;20060;-68
2022/05/19 04:26:01;;;;;;;16.40;5.95;;;;;;;23.89;67.83;100931.09;4977919;28;20054;-67
2022/05/19 04:28:32;;;;;;;11.73;5.25;;;;;;;23.64;68.84;100935.84;4971958;28;20043;-67
2022/05/19 04:31:00;;;;;;;14.68;5.78;;;;;;;23.55;68.85;100935.41;4973020;28;20496;-67
2022/05/19 04:33:28;;;;;;;11.68;5.32;;;;;;;23.70;68.47;100932.25;4963539;28;20051;-67
2022/05/19 04:35:55;;;;;;;13.23;6.32;;;;;;;23.83;68.19;100930.69;4961014;28;20062;-67
2022/05/19 04:38:23;;;;;;;12.50;5.65;;;;;;;23.84;68.28;100940.72;4979272;28;20054;-66
2022/05/19 04:40:51;;;;;;;15.07;5.72;;;;;;;23.67;69.12;100940.69;4987731;28;20050;-67
2022/05/19 04:43:22;;;;;;;13.63;5.63;;;;;;;23.72;68.94;100937.47;4978639;28;20478;-67
2022/05/19 04:45:51;;;;;;;8.93;5.47;;;;;;;23.84;68.39;100939.91;4970753;28;20065;-67
2022/05/19 04:48:19;;;;;;;11.88;5.35;;;;;;;23.79;68.40;100946.75;4976153;28;20050;-68
2022/05/19 04:50:50;;;;;;;11.75;6.18;;;;;;;23.85;68.11;100956.41;4984822;28;20504;-67
2022/05/19 04:53:17;;;;;;;17.58;6.20;;;;;;;23.99;67.38;100967.72;4978359;28;20046;-68
2022/05/19 04:55:45;;;;;;;11.93;7.00;;;;;;;23.90;67.15;100989.78;4963627;28;20505;-70
2022/05/19 04:58:12;;;;;;;11.02;5.90;;;;;;;23.75;68.20;100990.94;4959911;28;20077;-68
2022/05/19 05:00:41;;;;;;;9.48;5.13;;;;;;;23.76;67.61;100998.19;4976675;28;20054;-67
2022/05/19 05:03:09;;;;;;;12.02;4.88;;;;;;;23.69;67.48;101000.97;4979072;28;20050;-67
2022/05/19 05:05:36;;;;;;;15.77;6.35;;;;;;;23.93;67.44;101002.25;4977574;28;20054;-68
2022/05/19 05:08:04;;;;;;;10.13;5.55;;;;;;;23.82;66.71;101005.03;4988901;28;20046;-68
2022/05/19 05:10:31;;;;;;;13.40;5.30;;;;;;;23.85;66.90;101012.66;4985314;28;20054;-68
2022/05/19 05:13:11;;;;;;;9.23;5.45;;;;;;;23.37;68.25;101020.50;4980532;28;20069;-67
2022/05/19 05:15:40;;;;;;;8.43;4.85;;;;;;;23.40;68.18;101045.00;4972940;28;20382;-68
2022/05/19 05:18:08;;;;;;;10.43;5.30;;;;;;;23.72;66.37;101064.88;4977547;28;20039;-68
2022/05/19 05:20:39;;;;;;;8.93;4.60;;;;;;;24.03;65.55;101069.06;4947310;28;20051;-67
2022/05/19 05:23:07;;;;;;;10.48;4.63;;;;;;;24.02;64.47;101042.13;4975054;28;20402;-67
2022/05/19 05:25:38;;;;;;;16.17;4.93;;;;;;;24.02;65.05;101042.13;4965581;28;20055;-68
2022/05/19 05:28:05;;;;;;;9.82;5.22;;;;;;;24.11;64.80;101056.66;4973770;28;20560;-68
2022/05/19 05:30:33;;;;;;;8.48;5.30;;;;;;;24.07;64.21;101059.44;4980377;28;20039;-69
2022/05/19 05:33:05;;;;;;;11.00;4.63;;;;;;;24.35;63.39;101037.00;4974870;28;20047;-67
2022/05/19 05:35:34;;;;;;;9.30;4.55;;;;;;;24.27;63.28;101040.19;4963238;28;20055;-68
2022/05/19 05:38:01;;;;;;;7.95;4.60;;;;;;;24.43;63.62;101044.25;4932303;28;20527;-68
2022/05/19 05:40:29;;;;;;;9.30;4.63;;;;;;;24.40;62.58;101049.88;4980639;28;20043;-68
2022/05/19 05:43:30;;;;;;;11.30;5.22;;;;;;;24.60;62.32;101044.69;4980250;28;20077;-68
2022/05/19 05:46:10;;;;;;;14.98;5.25;;;;;;;24.53;62.54;101045.47;4952120;28;20418;-68
2022/05/19 05:48:38;;;;;;;9.45;5.10;;;;;;;24.51;63.12;101051.50;4968867;28;20059;-69
2022/05/19 05:51:10;;;;;;;12.85;5.60;;;;;;;24.56;63.24;101041.88;4969498;28;20054;-68
2022/05/19 05:53:38;;;;;;;10.65;4.75;;;;;;;24.36;63.01;101037.78;4953592;28;20231;-69
2022/05/19 05:56:08;;;;;;;12.05;5.10;;;;;;;24.34;63.11;101041.00;4975492;28;20066;-67
2022/05/19 05:58:38;;;;;;;10.65;5.00;;;;;;;24.49;63.37;101041.88;4974111;28;20042;-68
2022/05/19 06:01:11;;;;;;;18.50;5.63;;;;;;;24.38;63.24;101038.22;4945392;28;20050;-68
2022/05/19 06:03:39;;;;;;;9.02;4.47;;;;;;;24.34;63.79;101034.56;4981443;28;20074;-68
2022/05/19 06:06:06;;;;;;;9.32;4.85;;;;;;;24.22;63.96;101035.75;4982609;28;20047;-68
2022/05/19 06:08:36;;;;;;;8.70;5.07;;;;;;;24.15;64.18;101032.09;4977017;28;20051;-69
2022/05/19 06:11:05;;;;;;;9.40;5.22;;;;;;;24.11;64.13;101031.31;4979647;28;20047;-68
2022/05/19 06:13:33;;;;;;;10.70;4.97;;;;;;;24.29;63.50;101043.41;4981587;28;20051;-68
2022/05/19 06:16:00;;;;;;;11.23;4.72;;;;;;;24.58;62.68;101047.09;4948569;28;20054;-68
2022/05/19 06:18:28;;;;;;;9.05;5.00;;;;;;;24.38;63.63;101046.66;4969830;28;20047;-68
2022/05/19 06:20:55;;;;;;;14.25;4.90;;;;;;;23.98;64.92;101058.97;4965044;28;20047;-67
2022/05/19 06:23:23;;;;;;;9.52;5.10;;;;;;;24.38;63.74;101044.66;4972939;28;20066;-67
2022/05/19 06:25:50;;;;;;;11.27;4.80;;;;;;;24.62;62.50;101045.09;4972702;28;20043;-68
2022/05/19 06:28:18;;;;;;;12.95;5.50;;;;;;;24.46;63.13;101048.31;4972231;28;20051;-68
2022/05/19 06:30:45;;;;;;;11.25;5.40;;;;;;;24.37;63.08;101039.44;4956283;28;20047;-68
2022/05/19 06:33:16;;;;;;;9.88;4.53;;;;;;;24.71;61.79;101042.72;4970269;28;20058;-68
2022/05/19 06:35:44;;;;;;;8.32;4.88;;;;;;;24.80;61.98;101038.31;4974885;28;20050;-67
2022/05/19 06:38:12;;;;;;;10.88;5.45;;;;;;;25.02;61.36;101047.56;4964601;28;20050;-68
2022/05/19 06:40:39;;;;;;;11.80;5.72;;;;;;;24.92;62.30;101046.34;4993368;28;20497;-67
2022/05/19 06:43:09;;;;;;;10.95;5.10;;;;;;;25.12;61.82;101047.53;4990203;28;20046;-67
2022/05/19 06:45:37;;;;;;;12.15;5.10;;;;;;;25.04;61.58;101047.94;4994269;28;20454;-69
2022/05/19 06:48:04;;;;;;;13.32;4.97;;;;;;;25.15;61.56;101051.56;4986861;28;20058;-68
2022/05/19 06:50:32;;;;;;;13.07;5.85;;;;;;;25.20;61.08;101056.81;5004945;28;20046;-68
2022/05/19 06:53:04;;;;;;;10.40;5.20;;;;;;;25.31;60.77;101058.41;4973383;28;20051;-67
2022/05/19 06:55:34;;;;;;;11.10;5.57;;;;;;;25.64;59.67;101048.69;4993744;28;20046;-67
2022/05/19 06:58:01;;;;;;;25.27;6.50;;;;;;;25.88;58.90;101061.13;5003687;28;20050;-69
2022/05/19 07:00:30;;;;;;;11.80;5.75;;;;;;;25.85;59.12;101056.28;4987230;28;20043;-67
2022/05/19 07:02:59;;;;;;;18.23;6.32;;;;;;;25.73;59.71;101059.56;4976656;28;20501;-68
2022/05/19 07:05:30;;;;;;;21.17;5.90;;;;;;;25.44;60.24;101062.44;5006855;28;20057;-67
2022/05/19 07:07:58;;;;;;;15.13;5.35;;;;;;;25.35;60.38;101073.31;5010900;28;20057;-67
2022/05/19 07:10:28;;;;;;;;;;;;;;;25.47;60.53;101066.47;4985249;28;20038;-68
2022/05/19 07:12:56;;;;;;;14.32;5.45;;;;;;;25.45;60.36;101066.09;4995761;28;19921;-67
2022/05/19 07:15:23;;;;;;;14.25;5.43;;;;;;;25.32;61.02;101070.50;4994693;28;20081;-68
2022/05/19 07:17:51;;;;;;;24.58;5.95;;;;;;;25.25;61.25;101067.69;4996457;28;20073;-67
2022/05/19 07:23:04;;;;;;;14.10;5.43;;;;;;;25.29;61.13;101057.22;4993919;28;20050;-67
2022/05/19 07:25:34;;;;;;;10.77;5.38;;;;;;;25.27;61.04;101068.06;4993408;28;20057;-67
2022/05/19 07:28:01;;;;;;;13.23;5.40;;;;;;;25.15;61.27;101063.66;4994074;28;20058;-68
2022/05/19 07:30:29;;;;;;;9.85;4.85;;;;;;;25.20;61.68;101065.25;4975307;28;20042;-68
2022/05/19 07:32:56;;;;;;;11.43;5.30;;;;;;;25.20;61.11;101070.91;4996400;28;20417;-68
2022/05/19 07:35:24;;;;;;;12.00;5.35;;;;;;;25.43;61.11;101082.59;4997042;28;20433;-68
2022/05/19 07:37:51;;;;;;;12.15;5.28;;;;;;;25.61;60.53;101083.38;4996066;28;20046;-68
2022/05/19 07:40:19;;;;;;;13.20;5.80;;;;;;;25.82;59.58;101082.53;4997029;28;20050;-67
2022/05/19 07:42:47;;;;;;;12.57;5.88;;;;;;;25.79;59.91;101067.19;4996626;28;20153;-66
2022/05/19 07:45:15;;;;;;;20.35;6.80;;;;;;;25.72;61.17;101064.38;4992423;28;20061;-67
2022/05/19 07:47:44;;;;;;;20.10;6.18;;;;;;;25.73;60.89;101070.84;5010711;28;20465;-68
2022/05/19 07:50:14;;;;;;;16.20;6.30;;;;;;;25.76;60.44;101076.47;4984719;28;20045;-67
2022/05/19 07:52:41;;;;;;;13.52;5.72;;;;;;;26.30;59.63;101080.72;4992696;28;20054;-67
2022/05/19 07:55:09;;;;;;;17.35;6.05;;;;;;;26.38;57.80;101088.75;4994737;28;20065;-67
2022/05/19 07:57:38;;;;;;;12.35;5.75;;;;;;;26.66;57.49;101099.88;4993291;28;20046;-70
2022/05/19 08:00:06;;;;;;;17.30;5.68;;;;;;;26.60;57.71;101095.91;4990841;28;20073;-69
2022/05/19 08:02:39;;;;;;;14.90;5.95;;;;;;;26.70;57.97;101104.75;4993877;28;20066;-69
2022/05/19 08:05:08;;;;;;;19.63;7.28;;;;;;;26.80;57.98;101112.38;5006930;28;20625;-69
2022/05/19 08:07:35;;;;;;;16.13;6.55;;;;;;;26.51;57.79;101109.69;4977373;28;20409;-68
2022/05/19 08:10:20;;;;;;;12.98;6.18;;;;;;;26.56;57.62;101114.91;4982733;28;20069;-69
2022/05/19 08:15:36;;;;;;;15.63;5.68;;;;;;;26.47;58.10;101131.50;4982497;28;20058;-69
2022/05/19 08:18:14;;;;;;;15.43;5.72;;;;;;;26.24;58.04;101148.13;4990479;28;20058;-69
2022/05/19 08:20:54;;;;;;;16.08;5.70;;;;;;;25.92;60.21;101153.06;4993029;28;20050;-69
2022/05/19 08:23:25;;;;;;;17.15;5.95;;;;;;;26.12;58.95;101140.09;4992157;28;20042;-68
2022/05/19 08:25:54;;;;;;;10.00;5.90;;;;;;;25.50;60.70;101150.28;4987703;28;20069;-69
2022/05/19 08:28:28;;;;;;;13.85;6.00;;;;;;;25.58;61.38;101158.34;4994441;28;20786;-69
2022/05/19 08:31:05;;;;;;;10.35;6.18;;;;;;;25.27;61.97;101166.78;4991085;28;20038;-69
2022/05/19 08:33:34;;;;;;;13.70;6.15;;;;;;;24.87;63.46;101181.22;4994477;28;20421;-69
2022/05/19 08:36:03;;;;;;;11.40;5.57;;;;;;;24.70;63.65;101194.06;5009340;28;20401;-68
2022/05/19 08:38:31;;;;;;;11.45;5.97;;;;;;;24.18;65.36;101197.44;4991967;28;20062;-70
2022/05/19 08:41:02;;;;;;;14.60;6.10;;;;;;;24.34;65.67;101211.97;4991488;28;20410;-69
2022/05/19 08:43:44;;;;;;;12.75;5.85;;;;;;;24.01;65.59;101215.81;4993167;28;20050;-69
2022/05/19 08:46:18;;;;;;;13.80;5.32;;;;;;;24.01;66.19;101215.81;4993239;28;20513;-69
2022/05/19 08:48:49;;;;;;;13.75;5.90;;;;;;;23.45;66.33;101218.16;5007070;28;20057;-68
2022/05/19 08:51:17;;;;;;;19.23;5.90;;;;;;;23.01;66.65;101239.78;4974238;28;20042;-69
2022/05/19 08:53:45;;;;;;;13.30;5.25;;;;;;;22.95;66.63;101228.06;4978341;28;20050;-70
2022/05/19 08:56:22;;;;;;;10.50;4.60;;;;;;;23.28;65.63;101219.63;4988383;28;20046;-70
2022/05/19 08:59:16;;;;;;;12.23;4.90;;;;;;;23.34;65.40;101218.06;4955395;28;20061;-70
2022/05/19 09:01:50;;;;;;;11.23;4.68;;;;;;;23.07;65.57;101236.22;4995705;28;20069;-69
2022/05/19 09:04:49;;;;;;;11.35;4.22;;;;;;;23.08;65.59;101256.72;4993941;28;20088;-69
2022/05/19 09:07:57;;;;;;;15.02;4.50;;;;;;;22.97;65.38;101258.59;5007332;28;20046;-71
2022/05/19 09:10:30;;;;;;;11.73;4.40;;;;;;;22.73;66.24;101259.09;4960553;28;20070;-68
2022/05/19 09:13:16;;;;;;;10.80;4.63;;;;;;;22.73;65.94;101264.72;4987974;28;20073;-71
2022/05/19 09:15:47;;;;;;;10.73;3.83;;;;;;;22.62;65.64;101281.44;4995184;28;20050;-68
2022/05/19 09:18:21;;;;;;;11.85;3.92;;;;;;;22.43;65.76;101272.31;4976889;28;20061;-69
2022/05/19 09:20:51;;;;;;;13.23;3.80;;;;;;;22.66;65.27;101287.09;5008880;28;20112;-71
2022/05/19 09:23:18;;;;;;;10.20;4.45;;;;;;;22.29;65.37;101309.41;5009944;28;20047;-69
2022/05/19 09:25:57;;;;;;;9.90;4.00;;;;;;;22.29;65.33;101293.38;4991802;28;20065;-70
2022/05/19 09:28:27;;;;;;;12.98;3.92;;;;;;;22.38;64.68;101279.06;4985745;28;20054;-69
2022/05/19 09:30:56;;;;;;;15.45;3.97;;;;;;;22.19;65.35;101312.88;4981977;28;20511;-67
2022/05/19 09:33:33;;;;;;;17.67;4.50;;;;;;;22.12;65.86;101312.75;4992774;28;20484;-69
2022/05/19 09:36:10;;;;;;;11.63;4.45;;;;;;;21.74;66.31;101307.28;4977168;28;20042;-70
2022/05/19 09:38:45;;;;;;;16.38;5.07;;;;;;;21.89;65.62;101331.59;4966096;28;20066;-69
2022/05/19 09:41:23;;;;;;;15.82;5.30;;;;;;;21.96;64.36;101328.94;4993437;28;20042;-70
2022/05/19 09:43:56;;;;;;;12.35;6.32;;;;;;;21.36;66.02;101329.81;4990958;28;20046;-70
2022/05/19 09:46:50;;;;;;;16.88;5.95;;;;;;;21.11;66.02;101360.13;4991884;28;20054;-71
2022/05/19 09:49:33;;;;;;;12.98;6.07;;;;;;;21.14;66.24;101356.59;4986251;28;20042;-69
2022/05/19 09:52:04;;;;;;;17.55;6.35;;;;;;;21.22;65.46;101350.75;4986488;28;20058;-69
2022/05/19 09:54:33;;;;;;;14.15;5.47;;;;;;;21.15;64.97;101375.84;4992859;28;20468;-70
2022/05/19 09:57:09;;;;;;;13.37;5.37;;;;;;;20.71;65.77;101382.03;4958488;28;20058;-71
2022/05/19 09:59:48;;;;;;;12.50;4.95;;;;;;;21.10;64.79;101384.53;4988912;28;20050;-71
2022/05/19 10:02:25;;;;;;;10.95;5.10;;;;;;;20.67;65.40;101375.53;4995037;28;20585;-70
2022/05/19 10:04:55;;;;;;;9.25;4.38;;;;;;;21.04;64.94;101365.59;4974526;28;20518;-69
2022/05/19 10:07:28;;;;;;;;;;;;;;;21.42;63.61;101353.53;4988350;28;20046;-71
2022/05/19 10:09:58;;;;;;;14.40;4.35;;;;;;;21.64;62.69;101347.97;4985543;28;19929;-70
2022/05/19 10:12:28;;;;;;;14.43;4.28;;;;;;;21.67;61.54;101358.44;4971608;28;20053;-70
2022/05/19 10:15:02;;;;;;;14.73;4.75;;;;;;;21.58;62.59;101362.66;4993476;28;20055;-67
2022/05/19 10:17:56;;;;;;;13.32;4.28;;;;;;;21.74;61.60;101377.41;4993496;28;20512;-73
2022/05/19 10:20:30;;;;;;;10.88;3.03;;;;;;;21.82;59.86;101388.41;4987736;28;20113;-68
2022/05/19 10:23:18;;;;;;;16.33;3.45;;;;;;;22.25;59.04;101393.56;4987193;28;20053;-66
2022/05/19 10:25:52;;;;;;;8.82;3.25;;;;;;;22.17;58.80;101407.84;4988387;28;20526;-66
2022/05/19 10:32:00;;;;;;;10.35;3.20;;;;;;;21.93;57.63;101400.59;4984581;28;20038;-67
2022/05/19 10:34:46;;;;;;;11.68;2.58;;;;;;;22.43;54.99;101382.63;4990405;28;20057;-68
2022/05/19 10:37:58;;;;;;;9.52;2.03;;;;;;;22.59;54.39;101379.69;4991404;28;20059;-68
2022/05/19 10:40:53;;;;;;;5.43;1.90;;;;;;;22.94;52.72;101385.81;4996013;28;20057;-68
2022/05/19 10:43:40;;;;;;;6.72;1.75;;;;;;;22.71;52.93;101380.28;4994226;28;20050;-66
2022/05/19 10:46:11;;;;;;;9.07;2.42;;;;;;;22.65;52.94;101389.41;4994177;28;20054;-68
2022/05/19 10:48:58;;;;;;;5.70;2.03;;;;;;;23.08;52.08;101383.97;5010853;28;20537;-68
2022/05/19 10:52:15;;;;;;;6.68;2.83;;;;;;;23.35;51.22;101381.94;4989522;28;20058;-65
2022/05/19 10:55:33;;;;;;;7.05;3.05;;;;;;;23.30;50.95;101387.91;4953361;28;20163;-68
2022/05/19 10:58:19;;;;;;;4.78;2.40;;;;;;;22.79;52.18;101395.22;4912776;29;20047;-65
2022/05/19 11:00:57;;;;;;;6.78;2.33;;;;;;;22.97;51.21;101382.22;4995613;28;20061;-66
2022/05/19 11:03:36;;;;;;;5.63;2.60;;;;;;;23.06;51.31;101372.34;4978664;28;20046;-67
2022/05/19 11:06:13;;;;;;;7.63;2.08;;;;;;;23.26;51.00;101381.38;4984427;28;20053;-67
2022/05/19 11:08:48;;;;;;;8.63;3.30;;;;;;;23.65;50.30;101373.44;4985917;28;20061;-67
2022/05/19 11:11:29;;;;;;;9.18;2.00;;;;;;;23.86;49.51;101374.47;4979843;28;20134;-66
2022/05/19 11:14:12;;;;;;;5.68;1.80;;;;;;;23.79;48.53;101365.97;4983174;28;20050;-66
2022/05/19 11:17:01;;;;;;;6.30;2.22;;;;;;;23.86;48.49;101373.66;4983334;28;20520;-66
2022/05/19 11:19:32;;;;;;;11.00;2.28;;;;;;;23.76;49.14;101375.19;4992078;28;20054;-66
2022/05/19 11:22:12;;;;;;;10.05;2.33;;;;;;;24.07;47.07;101371.06;4996858;28;20053;-67
2022/05/19 11:27:38;;;;;;;9.77;2.30;;;;;;;23.97;47.42;101364.09;4996859;28;20066;-67
2022/05/19 11:30:16;;;;;;;6.43;2.70;;;;;;;24.50;46.74;101364.56;4983323;28;20042;-66
2022/05/19 11:32:48;;;;;;;5.03;1.67;;;;;;;24.39;46.51;101347.59;4993761;28;20046;-67
2022/05/19 11:35:39;;;;;;;8.27;1.83;;;;;;;24.49;45.79;101346.06;4974586;28;20089;-67
2022/05/19 11:38:22;;;;;;;4.60;1.52;;;;;;;23.94;46.89;101348.00;4991290;28;20154;-65
2022/05/19 11:40:58;;;;;;;7.53;2.03;;;;;;;24.10;47.24;101365.47;4990975;28;20050;-66
2022/05/19 11:43:51;;;;;;;3.50;1.55;;;;;;;23.98;47.18;101368.53;4992992;28;20046;-65
2022/05/19 11:46:26;;;;;;;4.47;1.83;;;;;;;23.94;47.11;101372.50;4977723;28;20520;-66
2022/05/19 11:55:42;;;;;;;4.20;1.65;;;;;;;24.28;45.66;101376.88;4931899;29;20052;-67
2022/05/19 11:58:12;;;;;;;7.70;2.42;;;;;;;24.81;45.70;101380.09;5006733;28;20504;-66
2022/05/19 12:00:47;;;;;;;13.80;3.00;;;;;;;25.32;44.70;101381.53;4975478;28;20046;-66
2022/05/19 12:03:21;;;;;;;7.80;2.22;;;;;;;24.87;45.34;101386.97;4991423;28;20402;-68
2022/05/19 12:05:56;;;;;;;10.90;5.75;;;;;;;25.26;44.72;101396.44;4991700;28;20162;-67